Home PIREPS Pireps

Flight BEL2815

  • Submitted By: Johan Willems
  • Departure Airport: Bruxelles National (EBBR)
  • Arrival Airport: Praha - Ruzyne (LKPR)
  • Aircraft: A320-214 (OO-SNA)
  • Flight Time: 01.25
  • Date Submitted: 14/04/2015
  • Status: Accepted
Flight Details
Gross Revenue:
(142 load / € 94.00 per unit
€ 13,348.00
Fuel Cost:
(3720 fuel used @ 5.1 / unit)
€ 18,972.00

Additional Log Information:

View Log

Aircraft Used in flight is Airbus A320 brussels
20:22 Brakes are On
20:25 Brakes are Released
20:32 You Took off @ 166 Knots and Flaps at Position 3
Departure Weather
EBBR 141820Z 25010KT CAVOK 19/06 Q1023 NOSIGrn
20:32 Landing Gear Up @ 173 Knots and 240 Feet
20:35 You exceeded maximum bank angle
21:35 Landing Gear Down @ 145 Knots and 3780 Feet
21:39 You Landed @ 138 Knots and with -200 Vertical Speed
Arrival Weather
LKPR 141900Z 24010KT CAVOK 12/02 Q1023 NOSIGrn
21:46 Brakes are On
21:47 Brussels Bel-Track1.0.0.9

Route Map

Corporate About Us Our Team Vacancies Information Fleet Route Network Rules and Regulations Operations Flight Schedules Event Center Tours Partners IVAO Vatsim Acars dev FSCB

fb Users Online Belgium Martin Witters, Belgium Bennie Peeters, Belgium Jos Viville,
4 Pilot(s) and 124 Guest(s) Online
CMS by phpVMS - Design by Crazycreatives.com - Copyright © 2018 - Brussels Airlines Virtual